Terminal Aerodrome Forecast
Issued by NWS Binghamton, NY

Home | Current Version | Previous Version | Text Only | Print | Product List | Glossary On
Versions: 1 2 3 4 5 6 7 8 9 10 11 12 13 14 15 16 17 18
000
FTUS41 KBGM 300900 AAA
TAFBGM
TAF AMD
KBGM 300900Z 3009/0106 16005KT P6SM SKC
     FM301400 16005KT P6SM SCT040 BKN150
     FM301900 16005KT P6SM BKN040 PROB30 3022/0102 3SM SHRA BR
      OVC025
     FM010300 VRB03KT 3SM BR SCT002 BKN070=

USA.gov is the U.S. government's official web portal to all federal, state and local government web resources and services.